sensor_id;sensor_type;location;lat;lon;timestamp;pressure;altitude;pressure_sealevel;temperature;humidity
58082;BME280;43876;55.576;38.242;2022-07-30T00:00:49;100212.00;;;15.58;67.84
58082;BME280;43876;55.576;38.242;2022-07-30T00:03:16;100212.94;;;15.52;68.08
58082;BME280;43876;55.576;38.242;2022-07-30T00:05:43;100210.34;;;15.49;68.14
58082;BME280;43876;55.576;38.242;2022-07-30T00:08:10;100200.75;;;15.42;68.24
58082;BME280;43876;55.576;38.242;2022-07-30T00:10:38;100208.72;;;15.38;68.48
58082;BME280;43876;55.576;38.242;2022-07-30T00:13:05;100200.06;;;15.25;68.67
58082;BME280;43876;55.576;38.242;2022-07-30T00:15:32;100202.81;;;15.17;68.75
58082;BME280;43876;55.576;38.242;2022-07-30T00:17:59;100210.69;;;15.19;68.65
58082;BME280;43876;55.576;38.242;2022-07-30T00:20:27;100212.47;;;15.17;68.74
58082;BME280;43876;55.576;38.242;2022-07-30T00:22:54;100137.47;;;14.74;68.61
58082;BME280;43876;55.576;38.242;2022-07-30T00:25:21;100119.22;;;14.57;68.76
58082;BME280;43876;55.576;38.242;2022-07-30T00:27:47;100219.50;;;15.13;68.53
58082;BME280;43876;55.576;38.242;2022-07-30T00:30:15;100175.91;;;14.89;68.87
58082;BME280;43876;55.576;38.242;2022-07-30T00:32:42;100192.50;;;14.92;68.91
58082;BME280;43876;55.576;38.242;2022-07-30T00:35:09;100218.75;;;15.02;69.24
58082;BME280;43876;55.576;38.242;2022-07-30T00:37:36;100209.09;;;14.99;69.26
58082;BME280;43876;55.576;38.242;2022-07-30T00:40:05;100213.53;;;14.95;69.50
58082;BME280;43876;55.576;38.242;2022-07-30T00:42:41;100196.13;;;14.81;69.47
58082;BME280;43876;55.576;38.242;2022-07-30T00:45:09;100207.50;;;14.83;69.79
58082;BME280;43876;55.576;38.242;2022-07-30T00:47:37;100194.44;;;14.73;69.89
58082;BME280;43876;55.576;38.242;2022-07-30T00:50:06;100223.28;;;14.81;69.96
58082;BME280;43876;55.576;38.242;2022-07-30T00:52:34;100202.34;;;14.73;70.23
58082;BME280;43876;55.576;38.242;2022-07-30T00:55:04;100206.72;;;14.70;70.03
58082;BME280;43876;55.576;38.242;2022-07-30T00:57:32;100196.25;;;14.65;70.72
58082;BME280;43876;55.576;38.242;2022-07-30T01:00:00;100195.41;;;14.65;70.31
58082;BME280;43876;55.576;38.242;2022-07-30T01:02:28;100171.84;;;14.46;70.52
58082;BME280;43876;55.576;38.242;2022-07-30T01:04:55;100214.63;;;14.68;70.58
58082;BME280;43876;55.576;38.242;2022-07-30T01:07:22;100212.00;;;14.71;70.63
58082;BME280;43876;55.576;38.242;2022-07-30T01:09:52;100182.25;;;14.62;70.20
58082;BME280;43876;55.576;38.242;2022-07-30T01:12:22;100204.09;;;14.71;70.48
58082;BME280;43876;55.576;38.242;2022-07-30T01:14:51;100167.41;;;14.51;70.80
58082;BME280;43876;55.576;38.242;2022-07-30T01:17:19;100158.69;;;14.48;70.86
58082;BME280;43876;55.576;38.242;2022-07-30T01:19:47;100200.53;;;14.77;70.37
58082;BME280;43876;55.576;38.242;2022-07-30T01:27:49;100202.28;;;14.78;70.34
58082;BME280;43876;55.576;38.242;2022-07-30T01:30:19;100140.25;;;14.49;70.17
58082;BME280;43876;55.576;38.242;2022-07-30T01:32:50;100198.72;;;14.85;70.26
58082;BME280;43876;55.576;38.242;2022-07-30T01:35:19;100201.34;;;14.87;70.14
58082;BME280;43876;55.576;38.242;2022-07-30T01:37:48;100189.94;;;14.86;70.16
58082;BME280;43876;55.576;38.242;2022-07-30T01:40:15;100206.50;;;14.94;69.85
58082;BME280;43876;55.576;38.242;2022-07-30T01:42:45;100200.38;;;14.95;69.39
58082;BME280;43876;55.576;38.242;2022-07-30T01:45:13;100162.03;;;14.67;68.97
58082;BME280;43876;55.576;38.242;2022-07-30T01:47:42;100214.41;;;14.94;69.09
58082;BME280;43876;55.576;38.242;2022-07-30T01:50:12;100154.16;;;14.70;69.11
58082;BME280;43876;55.576;38.242;2022-07-30T01:52:44;100203.00;;;14.94;68.80
58082;BME280;43876;55.576;38.242;2022-07-30T01:55:17;100198.63;;;14.94;69.05
58082;BME280;43876;55.576;38.242;2022-07-30T01:57:47;100196.91;;;14.90;68.79
58082;BME280;43876;55.576;38.242;2022-07-30T02:00:15;100154.97;;;14.75;68.81
58082;BME280;43876;55.576;38.242;2022-07-30T02:02:43;100181.97;;;14.97;68.47
58082;BME280;43876;55.576;38.242;2022-07-30T02:05:12;100205.56;;;15.03;68.27
58082;BME280;43876;55.576;38.242;2022-07-30T02:07:56;100181.97;;;14.97;68.14
58082;BME280;43876;55.576;38.242;2022-07-30T02:10:33;100224.72;;;15.19;67.60
58082;BME280;43876;55.576;38.242;2022-07-30T02:13:03;100196.78;;;15.06;67.52
58082;BME280;43876;55.576;38.242;2022-07-30T02:15:45;100213.31;;;15.19;67.30
58082;BME280;43876;55.576;38.242;2022-07-30T02:18:30;100221.06;;;15.31;67.02
58082;BME280;43876;55.576;38.242;2022-07-30T02:21:02;100213.22;;;15.28;66.72
58082;BME280;43876;55.576;38.242;2022-07-30T02:23:38;100181.75;;;15.15;66.73
58082;BME280;43876;55.576;38.242;2022-07-30T02:26:08;100219.06;;;15.53;66.21
58082;BME280;43876;55.576;38.242;2022-07-30T02:28:40;100222.47;;;15.64;65.78
58082;BME280;43876;55.576;38.242;2022-07-30T02:31:10;100221.53;;;15.71;65.56
58082;BME280;43876;55.576;38.242;2022-07-30T02:33:44;100224.19;;;15.67;65.38
58082;BME280;43876;55.576;38.242;2022-07-30T02:36:17;100196.16;;;15.64;65.15
58082;BME280;43876;55.576;38.242;2022-07-30T02:38:46;100172.47;;;15.61;64.75
58082;BME280;43876;55.576;38.242;2022-07-30T02:41:13;100195.00;;;15.88;64.21
58082;BME280;43876;55.576;38.242;2022-07-30T02:43:41;100178.19;;;15.95;63.78
58082;BME280;43876;55.576;38.242;2022-07-30T02:46:10;100242.44;;;17.08;61.81
58082;BME280;43876;55.576;38.242;2022-07-30T02:49:04;100235.91;;;19.61;55.29
58082;BME280;43876;55.576;38.242;2022-07-30T02:51:34;100222.03;;;23.10;46.29
58082;BME280;43876;55.576;38.242;2022-07-30T02:54:02;100202.47;;;25.53;40.06
58082;BME280;43876;55.576;38.242;2022-07-30T02:56:30;100222.31;;;27.69;36.37
58082;BME280;43876;55.576;38.242;2022-07-30T02:59:01;100230.47;;;29.06;33.27
58082;BME280;43876;55.576;38.242;2022-07-30T03:01:30;100238.13;;;30.28;31.30
58082;BME280;43876;55.576;38.242;2022-07-30T03:03:58;100218.34;;;31.36;33.88
58082;BME280;43876;55.576;38.242;2022-07-30T03:06:26;100204.72;;;32.39;28.20
58082;BME280;43876;55.576;38.242;2022-07-30T03:08:53;100204.88;;;33.44;26.19
58082;BME280;43876;55.576;38.242;2022-07-30T03:11:22;100211.47;;;34.03;25.14
58082;BME280;43876;55.576;38.242;2022-07-30T03:13:51;100222.50;;;34.81;24.12
58082;BME280;43876;55.576;38.242;2022-07-30T03:16:21;100223.88;;;35.44;23.21
58082;BME280;43876;55.576;38.242;2022-07-30T03:18:49;100189.91;;;35.77;22.59
58082;BME280;43876;55.576;38.242;2022-07-30T03:21:21;100201.13;;;36.47;21.38
58082;BME280;43876;55.576;38.242;2022-07-30T03:23:52;100230.22;;;36.65;21.39
58082;BME280;43876;55.576;38.242;2022-07-30T03:26:21;100235.88;;;37.07;20.89
58082;BME280;43876;55.576;38.242;2022-07-30T03:28:50;100228.66;;;37.16;20.75
58082;BME280;43876;55.576;38.242;2022-07-30T03:31:19;100226.88;;;38.11;20.00
58082;BME280;43876;55.576;38.242;2022-07-30T03:33:47;100236.84;;;39.21;18.74
58082;BME280;43876;55.576;38.242;2022-07-30T03:36:16;100202.94;;;39.71;17.85
58082;BME280;43876;55.576;38.242;2022-07-30T03:38:44;100221.19;;;39.79;17.91
58082;BME280;43876;55.576;38.242;2022-07-30T03:41:12;100231.16;;;40.19;17.80
58082;BME280;43876;55.576;38.242;2022-07-30T03:43:43;100214.00;;;40.57;17.01
58082;BME280;43876;55.576;38.242;2022-07-30T03:46:11;100221.09;;;40.51;17.04
58082;BME280;43876;55.576;38.242;2022-07-30T03:48:43;100236.69;;;40.65;16.52
58082;BME280;43876;55.576;38.242;2022-07-30T03:51:11;100222.03;;;40.89;17.00
58082;BME280;43876;55.576;38.242;2022-07-30T03:53:40;100213.19;;;41.40;16.13
58082;BME280;43876;55.576;38.242;2022-07-30T03:56:27;100207.91;;;42.13;15.50
58082;BME280;43876;55.576;38.242;2022-07-30T03:59:13;100233.31;;;42.73;14.89
58082;BME280;43876;55.576;38.242;2022-07-30T04:01:40;100218.38;;;42.61;14.89
58082;BME280;43876;55.576;38.242;2022-07-30T04:04:20;100234.94;;;42.16;14.83
58082;BME280;43876;55.576;38.242;2022-07-30T04:06:48;100210.31;;;41.19;15.81
58082;BME280;43876;55.576;38.242;2022-07-30T04:09:17;100239.22;;;40.12;16.61
58082;BME280;43876;55.576;38.242;2022-07-30T04:11:47;100219.53;;;36.54;19.51
58082;BME280;43876;55.576;38.242;2022-07-30T04:14:16;100215.22;;;33.09;23.59
58082;BME280;43876;55.576;38.242;2022-07-30T04:16:48;100242.09;;;30.72;27.29
58082;BME280;43876;55.576;38.242;2022-07-30T04:19:25;100243.34;;;29.41;29.21
58082;BME280;43876;55.576;38.242;2022-07-30T04:21:54;100243.91;;;29.06;30.00
58082;BME280;43876;55.576;38.242;2022-07-30T04:24:23;100245.41;;;28.29;30.65
58082;BME280;43876;55.576;38.242;2022-07-30T04:26:52;100216.53;;;27.46;32.14
58082;BME280;43876;55.576;38.242;2022-07-30T04:29:19;100248.31;;;27.08;32.95
58082;BME280;43876;55.576;38.242;2022-07-30T04:31:55;100199.50;;;26.25;33.90
58082;BME280;43876;55.576;38.242;2022-07-30T04:34:47;100259.91;;;25.97;34.75
58082;BME280;43876;55.576;38.242;2022-07-30T04:37:23;100212.53;;;25.48;35.28
58082;BME280;43876;55.576;38.242;2022-07-30T04:39:50;100255.28;;;25.66;35.64
58082;BME280;43876;55.576;38.242;2022-07-30T04:42:21;100253.72;;;25.09;35.87
58082;BME280;43876;55.576;38.242;2022-07-30T04:44:58;100270.34;;;24.80;36.51
58082;BME280;43876;55.576;38.242;2022-07-30T04:47:28;100265.91;;;24.61;37.36
58082;BME280;43876;55.576;38.242;2022-07-30T04:50:28;100202.84;;;24.21;37.88
58082;BME280;43876;55.576;38.242;2022-07-30T04:52:57;100258.19;;;24.36;38.24
58082;BME280;43876;55.576;38.242;2022-07-30T04:55:31;100272.53;;;24.33;38.04
58082;BME280;43876;55.576;38.242;2022-07-30T04:58:00;100268.44;;;23.87;37.82
58082;BME280;43876;55.576;38.242;2022-07-30T05:00:32;100271.59;;;23.97;37.88
58082;BME280;43876;55.576;38.242;2022-07-30T05:03:11;100263.94;;;24.08;38.22
58082;BME280;43876;55.576;38.242;2022-07-30T05:05:43;100273.03;;;24.04;38.01
58082;BME280;43876;55.576;38.242;2022-07-30T05:08:12;100248.50;;;23.75;38.67
58082;BME280;43876;55.576;38.242;2022-07-30T05:10:39;100270.97;;;23.69;38.73
58082;BME280;43876;55.576;38.242;2022-07-30T05:13:12;100256.41;;;23.58;39.07
58082;BME280;43876;55.576;38.242;2022-07-30T05:15:41;100237.47;;;23.43;39.27
58082;BME280;43876;55.576;38.242;2022-07-30T05:18:12;100273.47;;;23.54;39.24
58082;BME280;43876;55.576;38.242;2022-07-30T05:20:43;100252.81;;;23.38;39.88
58082;BME280;43876;55.576;38.242;2022-07-30T05:23:21;100231.81;;;23.30;39.98
58082;BME280;43876;55.576;38.242;2022-07-30T05:26:04;100226.00;;;23.41;39.77
58082;BME280;43876;55.576;38.242;2022-07-30T05:28:39;100246.25;;;23.66;38.60
58082;BME280;43876;55.576;38.242;2022-07-30T05:31:09;100259.81;;;23.41;38.60
58082;BME280;43876;55.576;38.242;2022-07-30T05:33:39;100216.59;;;23.12;39.33
58082;BME280;43876;55.576;38.242;2022-07-30T05:36:10;100207.09;;;23.06;39.13
58082;BME280;43876;55.576;38.242;2022-07-30T05:38:38;100211.09;;;22.95;39.00
58082;BME280;43876;55.576;38.242;2022-07-30T05:41:37;100264.72;;;23.29;38.99
58082;BME280;43876;55.576;38.242;2022-07-30T05:44:08;100262.72;;;23.35;38.13
58082;BME280;43876;55.576;38.242;2022-07-30T05:46:36;100241.81;;;23.25;37.59
58082;BME280;43876;55.576;38.242;2022-07-30T05:49:03;100267.13;;;23.36;37.45
58082;BME280;43876;55.576;38.242;2022-07-30T05:51:48;100232.28;;;23.20;37.68
58082;BME280;43876;55.576;38.242;2022-07-30T05:54:16;100219.78;;;23.00;37.69
58082;BME280;43876;55.576;38.242;2022-07-30T05:57:16;100266.50;;;23.08;38.18
58082;BME280;43876;55.576;38.242;2022-07-30T05:59:46;100244.75;;;23.19;38.23
58082;BME280;43876;55.576;38.242;2022-07-30T06:02:37;100274.19;;;23.37;37.95
58082;BME280;43876;55.576;38.242;2022-07-30T06:05:25;100229.09;;;23.32;38.09
58082;BME280;43876;55.576;38.242;2022-07-30T06:07:55;100274.31;;;23.54;38.09
58082;BME280;43876;55.576;38.242;2022-07-30T06:10:25;100227.75;;;23.22;38.12
58082;BME280;43876;55.576;38.242;2022-07-30T06:12:52;100262.88;;;23.52;37.92
58082;BME280;43876;55.576;38.242;2022-07-30T06:15:20;100270.00;;;23.51;37.42
58082;BME280;43876;55.576;38.242;2022-07-30T06:17:53;100262.66;;;23.57;37.57
58082;BME280;43876;55.576;38.242;2022-07-30T06:20:39;100273.00;;;23.44;37.80
58082;BME280;43876;55.576;38.242;2022-07-30T06:23:20;100227.13;;;23.36;37.75
58082;BME280;43876;55.576;38.242;2022-07-30T06:26:09;100218.56;;;23.49;37.54
58082;BME280;43876;55.576;38.242;2022-07-30T06:28:36;100240.63;;;23.72;37.16
58082;BME280;43876;55.576;38.242;2022-07-30T06:31:34;100230.75;;;23.74;37.06
58082;BME280;43876;55.576;38.242;2022-07-30T06:34:01;100250.03;;;24.01;37.04
58082;BME280;43876;55.576;38.242;2022-07-30T06:36:34;100228.09;;;23.95;36.43
58082;BME280;43876;55.576;38.242;2022-07-30T06:39:29;100256.44;;;23.97;36.96
58082;BME280;43876;55.576;38.242;2022-07-30T06:42:33;100251.50;;;23.67;37.33
58082;BME280;43876;55.576;38.242;2022-07-30T06:45:30;100249.25;;;23.79;37.43
58082;BME280;43876;55.576;38.242;2022-07-30T06:48:35;100255.78;;;23.92;36.68
58082;BME280;43876;55.576;38.242;2022-07-30T06:51:04;100270.25;;;23.86;36.57
58082;BME280;43876;55.576;38.242;2022-07-30T06:53:31;100260.88;;;23.78;36.65
58082;BME280;43876;55.576;38.242;2022-07-30T06:56:11;100239.63;;;23.75;36.70
58082;BME280;43876;55.576;38.242;2022-07-30T06:58:59;100261.94;;;23.94;36.13
58082;BME280;43876;55.576;38.242;2022-07-30T07:01:44;100267.53;;;24.07;36.26
58082;BME280;43876;55.576;38.242;2022-07-30T07:04:12;100240.16;;;24.22;35.67
58082;BME280;43876;55.576;38.242;2022-07-30T07:06:39;100253.72;;;24.56;35.38
58082;BME280;43876;55.576;38.242;2022-07-30T07:09:08;100257.63;;;24.48;34.55
58082;BME280;43876;55.576;38.242;2022-07-30T07:11:46;100252.78;;;24.38;35.21
58082;BME280;43876;55.576;38.242;2022-07-30T07:14:16;100259.63;;;24.62;34.61
58082;BME280;43876;55.576;38.242;2022-07-30T07:16:44;100257.94;;;24.79;34.20
58082;BME280;43876;55.576;38.242;2022-07-30T07:19:52;100236.00;;;24.72;33.62
58082;BME280;43876;55.576;38.242;2022-07-30T07:22:26;100261.16;;;24.85;34.08
58082;BME280;43876;55.576;38.242;2022-07-30T07:24:53;100262.03;;;25.03;33.43
58082;BME280;43876;55.576;38.242;2022-07-30T07:27:24;100254.53;;;24.75;34.15
58082;BME280;43876;55.576;38.242;2022-07-30T07:29:56;100257.66;;;24.28;34.71
58082;BME280;43876;55.576;38.242;2022-07-30T07:32:34;100249.66;;;24.09;35.13
58082;BME280;43876;55.576;38.242;2022-07-30T07:35:03;100232.06;;;24.05;34.68
58082;BME280;43876;55.576;38.242;2022-07-30T07:37:32;100260.97;;;23.95;34.99
58082;BME280;43876;55.576;38.242;2022-07-30T07:39:59;100209.69;;;23.68;35.50
58082;BME280;43876;55.576;38.242;2022-07-30T07:42:29;100249.63;;;24.48;34.59
58082;BME280;43876;55.576;38.242;2022-07-30T07:44:56;100251.53;;;25.18;33.44
58082;BME280;43876;55.576;38.242;2022-07-30T07:47:23;100238.03;;;25.38;32.61
58082;BME280;43876;55.576;38.242;2022-07-30T07:50:05;100201.25;;;25.26;33.34
58082;BME280;43876;55.576;38.242;2022-07-30T07:52:32;100245.25;;;25.53;33.27
58082;BME280;43876;55.576;38.242;2022-07-30T07:54:59;100225.66;;;25.01;34.00
58082;BME280;43876;55.576;38.242;2022-07-30T07:57:29;100245.72;;;25.09;34.46
58082;BME280;43876;55.576;38.242;2022-07-30T07:59:57;100229.56;;;25.30;34.05
58082;BME280;43876;55.576;38.242;2022-07-30T08:02:26;100212.00;;;25.24;33.97
58082;BME280;43876;55.576;38.242;2022-07-30T08:04:58;100203.72;;;24.77;33.17
58082;BME280;43876;55.576;38.242;2022-07-30T08:07:51;100241.63;;;25.02;32.18
58082;BME280;43876;55.576;38.242;2022-07-30T08:10:36;100246.00;;;24.86;32.73
58082;BME280;43876;55.576;38.242;2022-07-30T08:13:32;100238.72;;;24.53;32.69
58082;BME280;43876;55.576;38.242;2022-07-30T08:16:36;100195.13;;;24.15;33.32
58082;BME280;43876;55.576;38.242;2022-07-30T08:19:09;100231.47;;;24.36;33.51
58082;BME280;43876;55.576;38.242;2022-07-30T08:21:58;100235.38;;;24.10;34.69
58082;BME280;43876;55.576;38.242;2022-07-30T08:24:29;100239.19;;;24.42;34.57
58082;BME280;43876;55.576;38.242;2022-07-30T08:26:56;100229.13;;;24.85;33.66
58082;BME280;43876;55.576;38.242;2022-07-30T08:29:23;100224.91;;;25.33;33.02
58082;BME280;43876;55.576;38.242;2022-07-30T08:31:50;100178.09;;;25.07;32.51
58082;BME280;43876;55.576;38.242;2022-07-30T08:34:18;100216.44;;;25.25;32.25
58082;BME280;43876;55.576;38.242;2022-07-30T08:36:53;100214.97;;;25.36;31.80
58082;BME280;43876;55.576;38.242;2022-07-30T08:39:20;100234.34;;;25.41;31.67
58082;BME280;43876;55.576;38.242;2022-07-30T08:41:47;100205.25;;;25.34;31.61
58082;BME280;43876;55.576;38.242;2022-07-30T08:44:16;100211.25;;;25.73;31.25
58082;BME280;43876;55.576;38.242;2022-07-30T08:46:47;100220.94;;;25.91;30.74
58082;BME280;43876;55.576;38.242;2022-07-30T08:49:36;100219.00;;;25.78;30.45
58082;BME280;43876;55.576;38.242;2022-07-30T08:52:04;100225.13;;;25.80;29.88
58082;BME280;43876;55.576;38.242;2022-07-30T08:54:39;100220.03;;;25.75;30.23
58082;BME280;43876;55.576;38.242;2022-07-30T08:57:06;100206.22;;;25.67;29.61
58082;BME280;43876;55.576;38.242;2022-07-30T08:59:35;100209.72;;;25.51;30.94
58082;BME280;43876;55.576;38.242;2022-07-30T09:02:26;100226.44;;;25.55;31.13
58082;BME280;43876;55.576;38.242;2022-07-30T09:05:03;100199.38;;;25.28;30.34
58082;BME280;43876;55.576;38.242;2022-07-30T09:07:32;100219.38;;;25.02;31.49
58082;BME280;43876;55.576;38.242;2022-07-30T09:10:03;100211.69;;;25.13;31.31
58082;BME280;43876;55.576;38.242;2022-07-30T09:12:34;100197.28;;;25.16;31.51
58082;BME280;43876;55.576;38.242;2022-07-30T09:15:06;100210.81;;;25.47;31.03
58082;BME280;43876;55.576;38.242;2022-07-30T09:20:25;100192.41;;;26.08;30.05
58082;BME280;43876;55.576;38.242;2022-07-30T09:22:58;100198.19;;;26.16;30.05
58082;BME280;43876;55.576;38.242;2022-07-30T09:25:46;100193.53;;;26.35;29.30
58082;BME280;43876;55.576;38.242;2022-07-30T09:28:33;100209.00;;;26.62;28.81
58082;BME280;43876;55.576;38.242;2022-07-30T09:31:12;100199.56;;;26.71;28.81
58082;BME280;43876;55.576;38.242;2022-07-30T09:34:02;100205.25;;;26.49;28.87
58082;BME280;43876;55.576;38.242;2022-07-30T09:36:48;100163.22;;;26.35;29.15
58082;BME280;43876;55.576;38.242;2022-07-30T09:39:32;100204.66;;;26.44;29.08
58082;BME280;43876;55.576;38.242;2022-07-30T09:42:21;100208.81;;;26.65;29.25
58082;BME280;43876;55.576;38.242;2022-07-30T09:44:51;100208.72;;;26.97;29.15
58082;BME280;43876;55.576;38.242;2022-07-30T09:47:43;100209.84;;;26.47;29.06
58082;BME280;43876;55.576;38.242;2022-07-30T09:50:15;100204.59;;;26.29;29.60
58082;BME280;43876;55.576;38.242;2022-07-30T09:53:08;100215.97;;;26.17;29.48
58082;BME280;43876;55.576;38.242;2022-07-30T09:55:41;100211.09;;;25.92;29.90
58082;BME280;43876;55.576;38.242;2022-07-30T09:58:10;100208.13;;;25.81;29.76
58082;BME280;43876;55.576;38.242;2022-07-30T10:00:57;100201.91;;;25.80;29.68
58082;BME280;43876;55.576;38.242;2022-07-30T10:03:49;100203.88;;;26.10;29.80
58082;BME280;43876;55.576;38.242;2022-07-30T10:06:35;100184.88;;;26.30;29.44
58082;BME280;43876;55.576;38.242;2022-07-30T10:09:34;100188.59;;;26.60;28.97
58082;BME280;43876;55.576;38.242;2022-07-30T10:12:05;100152.47;;;26.51;28.65
58082;BME280;43876;55.576;38.242;2022-07-30T10:14:43;100182.75;;;26.83;28.05
58082;BME280;43876;55.576;38.242;2022-07-30T10:17:14;100188.53;;;27.22;27.81
58082;BME280;43876;55.576;38.242;2022-07-30T10:20:07;100191.81;;;27.41;28.03
58082;BME280;43876;55.576;38.242;2022-07-30T10:23:06;100163.28;;;27.26;27.68
58082;BME280;43876;55.576;38.242;2022-07-30T10:25:36;100188.75;;;27.33;27.57
58082;BME280;43876;55.576;38.242;2022-07-30T10:28:41;100204.16;;;27.29;27.47
58082;BME280;43876;55.576;38.242;2022-07-30T10:31:10;100153.06;;;27.16;27.72
58082;BME280;43876;55.576;38.242;2022-07-30T10:33:57;100145.41;;;27.10;27.83
58082;BME280;43876;55.576;38.242;2022-07-30T10:36:25;100171.31;;;27.40;27.85
58082;BME280;43876;55.576;38.242;2022-07-30T10:38:52;100190.28;;;27.37;27.69
58082;BME280;43876;55.576;38.242;2022-07-30T10:41:41;100179.25;;;27.42;27.25
58082;BME280;43876;55.576;38.242;2022-07-30T10:47:01;100176.09;;;27.78;26.48
58082;BME280;43876;55.576;38.242;2022-07-30T10:49:34;100186.75;;;27.80;26.50
58082;BME280;43876;55.576;38.242;2022-07-30T10:52:09;100184.63;;;27.70;26.90
58082;BME280;43876;55.576;38.242;2022-07-30T10:54:44;100201.16;;;27.20;27.76
58082;BME280;43876;55.576;38.242;2022-07-30T10:57:18;100192.78;;;27.10;27.48
58082;BME280;43876;55.576;38.242;2022-07-30T11:02:28;100196.34;;;27.41;27.46
58082;BME280;43876;55.576;38.242;2022-07-30T11:10:57;100182.88;;;26.50;29.05
58082;BME280;43876;55.576;38.242;2022-07-30T11:16:21;100177.47;;;26.35;29.68
58082;BME280;43876;55.576;38.242;2022-07-30T11:19:04;100200.19;;;26.12;29.77
58082;BME280;43876;55.576;38.242;2022-07-30T11:22:27;100187.19;;;26.05;29.87
58082;BME280;43876;55.576;38.242;2022-07-30T11:24:58;100193.44;;;26.21;29.70
58082;BME280;43876;55.576;38.242;2022-07-30T11:27:46;100167.97;;;26.14;28.98
58082;BME280;43876;55.576;38.242;2022-07-30T11:32:45;100136.13;;;26.09;28.72
58082;BME280;43876;55.576;38.242;2022-07-30T11:35:26;100169.94;;;26.26;29.25
58082;BME280;43876;55.576;38.242;2022-07-30T11:40:38;100163.41;;;25.67;29.82
58082;BME280;43876;55.576;38.242;2022-07-30T11:43:30;100169.94;;;26.26;29.25
58082;BME280;43876;55.576;38.242;2022-07-30T11:46:30;100170.97;;;26.24;29.09
58082;BME280;43876;55.576;38.242;2022-07-30T11:51:23;100151.22;;;26.10;29.53
58082;BME280;43876;55.576;38.242;2022-07-30T11:56:28;100147.59;;;26.27;29.57
58082;BME280;43876;55.576;38.242;2022-07-30T11:59:03;100172.22;;;26.18;30.11
58082;BME280;43876;55.576;38.242;2022-07-30T12:01:31;100168.06;;;26.12;29.86
58082;BME280;43876;55.576;38.242;2022-07-30T12:04:04;100166.66;;;26.21;30.10
58082;BME280;43876;55.576;38.242;2022-07-30T12:06:31;100182.41;;;25.78;30.48
58082;BME280;43876;55.576;38.242;2022-07-30T12:08:59;100157.97;;;25.35;30.58
58082;BME280;43876;55.576;38.242;2022-07-30T12:11:33;100167.66;;;25.03;30.62
58082;BME280;43876;55.576;38.242;2022-07-30T12:14:01;100176.53;;;24.86;30.87
58082;BME280;43876;55.576;38.242;2022-07-30T12:16:29;100164.28;;;24.64;31.64
58082;BME280;43876;55.576;38.242;2022-07-30T12:19:02;100168.28;;;24.73;31.77
58082;BME280;43876;55.576;38.242;2022-07-30T12:21:29;100164.03;;;24.69;31.78
58082;BME280;43876;55.576;38.242;2022-07-30T12:24:06;100163.94;;;24.53;32.21
58082;BME280;43876;55.576;38.242;2022-07-30T12:26:35;100158.31;;;24.59;32.20
58082;BME280;43876;55.576;38.242;2022-07-30T12:29:07;100162.94;;;24.90;31.78
58082;BME280;43876;55.576;38.242;2022-07-30T12:31:40;100143.69;;;25.01;30.81
58082;BME280;43876;55.576;38.242;2022-07-30T12:34:28;100144.56;;;25.02;30.74
58082;BME280;43876;55.576;38.242;2022-07-30T12:37:06;100154.69;;;24.95;30.60
58082;BME280;43876;55.576;38.242;2022-07-30T12:39:33;100175.38;;;25.26;30.72
58082;BME280;43876;55.576;38.242;2022-07-30T12:42:00;100170.50;;;25.34;30.96
58082;BME280;43876;55.576;38.242;2022-07-30T12:44:41;100159.75;;;25.52;30.56
58082;BME280;43876;55.576;38.242;2022-07-30T12:47:19;100140.72;;;25.58;30.12
58082;BME280;43876;55.576;38.242;2022-07-30T12:49:47;100150.13;;;25.81;29.75
58082;BME280;43876;55.576;38.242;2022-07-30T12:52:25;100096.09;;;25.43;29.57
58082;BME280;43876;55.576;38.242;2022-07-30T12:55:07;100131.78;;;25.91;29.16
58082;BME280;43876;55.576;38.242;2022-07-30T12:57:56;100133.69;;;25.89;28.67
58082;BME280;43876;55.576;38.242;2022-07-30T13:00:29;100113.97;;;25.74;27.74
58082;BME280;43876;55.576;38.242;2022-07-30T13:02:57;100126.03;;;25.65;27.96
58082;BME280;43876;55.576;38.242;2022-07-30T13:05:47;100163.13;;;25.56;28.32
58082;BME280;43876;55.576;38.242;2022-07-30T13:08:16;100144.91;;;25.46;28.52
58082;BME280;43876;55.576;38.242;2022-07-30T13:11:12;100142.81;;;25.18;28.53
58082;BME280;43876;55.576;38.242;2022-07-30T13:13:39;100136.16;;;24.92;28.89
58082;BME280;43876;55.576;38.242;2022-07-30T13:16:07;100155.34;;;24.83;29.47
58082;BME280;43876;55.576;38.242;2022-07-30T13:18:35;100098.50;;;24.44;29.74
58082;BME280;43876;55.576;38.242;2022-07-30T13:21:04;100145.34;;;24.69;30.31
58082;BME280;43876;55.576;38.242;2022-07-30T13:23:35;100148.16;;;25.01;29.85
58082;BME280;43876;55.576;38.242;2022-07-30T13:26:02;100095.72;;;25.16;29.70
58082;BME280;43876;55.576;38.242;2022-07-30T13:28:30;100144.81;;;25.48;29.20
58082;BME280;43876;55.576;38.242;2022-07-30T13:30:58;100137.59;;;25.50;28.34
58082;BME280;43876;55.576;38.242;2022-07-30T13:33:25;100147.38;;;25.67;28.21
58082;BME280;43876;55.576;38.242;2022-07-30T13:35:52;100134.44;;;25.75;28.39
58082;BME280;43876;55.576;38.242;2022-07-30T13:38:19;100135.81;;;25.82;28.58
58082;BME280;43876;55.576;38.242;2022-07-30T13:40:46;100127.88;;;25.81;28.11
58082;BME280;43876;55.576;38.242;2022-07-30T13:43:14;100130.97;;;25.73;27.11
58082;BME280;43876;55.576;38.242;2022-07-30T13:45:41;100140.66;;;25.75;27.69
58082;BME280;43876;55.576;38.242;2022-07-30T13:48:08;100139.78;;;25.75;27.52